Pennersville, Pennsylvania
Current Conditions -  °F | °C
As of 9:53 PM on Friday 31 Oct 2014 (Local Time) from KHGR Reporting Station
Overcast Overcast  
Wind Chill: 46°   Ceiling: 6500
Heat Index: 48°   Visibility: 10mi
Dew Point: 34°   Wind: 5mph
Humidity: 58%   Direction: 20°NNE
Pressure: 29.86"   Gusts: NA
Location:  39.7777°N, 77.5693°W
Report Text: KHGR 010153Z 02004KT 10SM OVC065 09/01 A2986 RMK AO2 SLP123 T00890011
Loading
Personal Weather Stations






























Interactive Weather Map
Tropical Storm Tracking
New forecast layout! Learn more

10-Day Weather Forecast

Advertisements
Track Severe Weather on mobile